Flight Track Log - Related Links

Times and Time Zones

All times are in EDT time to prevent confusion due to time zone crossing. See the N749SS flight status page for this flight to view local times or setup timezone preferences in your user account.

Time Position Orientation Groundspeed Altitude Reporting Facility
EDT Latitude Longitude Course Direction KTS km/h meters Rate Location/Type
Mon 16:13:17 43.6833 -79.6333 90° East 10 19 183  Level Toronto Center
Mon 16:14:17 43.6833 -79.6167 90° East 10 19 183 122 Level Toronto Center
Mon 16:15:17 43.6667 -79.6333 216° Southwest 100 185 427 366 Climbing Toronto Center
Mon 16:16:17 43.6333 -79.7000 229° Southwest 210 389 914 853 Climbing Toronto Center
Mon 16:17:17 43.6000 -79.7667 235° Southwest 230 426 2,134 1,311 Climbing Toronto Center
Mon 16:18:17 43.5333 -79.8167 209° Southwest 230 426 3,536 1,204 Climbing Toronto Center
Mon 16:19:17 43.4667 -79.8167 180° South 270 501 4,542 823 Climbing Toronto Center
Mon 16:20:17 43.3833 -79.8333 188° South 320 592 5,182 701 Climbing Toronto Center
Mon 16:21:17 43.2667 -79.8333 180° South 380 703 5,944 686 Climbing Toronto Center
Mon 16:22:17 43.1500 -79.8667 192° South 430 797 6,553 610 Climbing Toronto Center
Mon 16:23:17 43.0167 -79.8833 185° South 460 851 7,163 610 Climbing Toronto Center
Mon 16:24:17 42.8833 -79.9000 185° South 480 888 7,772 558 Climbing Toronto Center
Mon 16:24:52 42.8306 -79.9322 204° Southwest 494 914 8,047 547 Climbing Cleveland Center
Mon 16:25:54 42.6911 -79.9522 186° South 504 933 8,656 664 Climbing Cleveland Center
Mon 16:26:56 42.5219 -79.9758 186° South 511 946 9,418 383 Climbing Cleveland Center
Mon 16:27:58 42.4028 -79.9942 186° South 481 892 9,449 15 Climbing Cleveland Center
Mon 16:29:01 42.2675 -80.0133 186° South 482 893 9,449 336 Level Cleveland Center
Mon 16:30:03 42.1114 -80.0344 186° South 479 887 10,150 649 Climbing Cleveland Center
Mon 16:31:05 41.9786 -80.0531 186° South 477 884 10,790 590 Climbing Cleveland Center
Mon 16:32:07 41.8450 -80.0728 186° South 476 882 11,369 383 Climbing Cleveland Center
Mon 16:33:09 41.7142 -80.0900 186° South 470 871 11,582 103 Climbing Cleveland Center
Mon 16:34:11 41.5694 -80.1108 186° South 472 874 11,582  Level Cleveland Center
Mon 16:35:13 41.4353 -80.1278 185° South 482 893 11,582  Level Cleveland Center
Mon 16:36:15 41.3014 -80.1461 186° South 483 895 11,582  Level Cleveland Center
Mon 16:37:17 41.1678 -80.1647 186° South 483 895 11,582  Level Cleveland Center
Mon 16:38:19 41.0342 -80.1822 186° South 483 895 11,582  Level Cleveland Center
Mon 16:39:22 40.9008 -80.1997 186° South 483 895 11,582  Level Cleveland Center
Mon 16:40:24 40.7564 -80.2308 189° South 478 885 11,582  Level Cleveland Center
Mon 16:41:26 40.6342 -80.2747 195° South 465 861 11,582  Level Cleveland Center
Mon 16:42:28 40.4875 -80.3247 195° South 460 851 11,582  Level Cleveland Center
Mon 16:43:30 40.3822 -80.3589 194° South 460 851 11,582  Level Cleveland Center
Mon 16:44:32 40.2372 -80.4069 194° South 458 848 11,582  Level Cleveland Center
Mon 16:45:34 40.1136 -80.4381 191° South 457 847 11,582  Level Cleveland Center
Mon 16:46:36 39.9906 -80.4731 192° South 456 845 11,582  Level Cleveland Center
Mon 16:47:38 39.8692 -80.5050 191° South 448 830 11,582  Level Cleveland Center
Mon 16:48:40 39.7467 -80.5367 191° South 449 832 11,582  Level Cleveland Center
Mon 16:49:42 39.5989 -80.5750 191° South 450 834 11,582  Level Cleveland Center
Mon 16:50:44 39.4742 -80.6097 192° South 455 843 11,582  Level Cleveland Center
Mon 16:51:46 39.3481 -80.6450 192° South 460 851 11,582  Level Cleveland Center
Mon 16:52:47 39.2219 -80.6767 191° South 462 856 11,582  Level Cleveland Center
Mon 16:53:49 39.0947 -80.7100 191° South 463 858 11,582  Level Cleveland Center
Mon 16:54:51 38.9669 -80.7444 192° South 465 861 11,582  Level Cleveland Center
Mon 16:55:53 38.8144 -80.7822 191° South 465 861 11,582  Level Cleveland Center
Mon 16:56:55 38.6883 -80.8158 192° South 465 861 11,582  Level Cleveland Center
Mon 16:57:57 38.5611 -80.8478 191° South 465 861 11,582  Level Cleveland Center
Mon 16:58:59 38.4336 -80.8814 192° South 466 863 11,582  Level Cleveland Center
Mon 17:00:01 38.3067 -80.9131 191° South 466 863 11,582  Level Cleveland Center
Mon 17:01:03 38.1697 -80.9478 191° South 464 859 11,582  Level Cleveland Center
Mon 17:02:17 38.0214 -80.9881 192° South 464 859 11,582  Level Indianapolis Center
Mon 17:03:19 37.9003 -81.0189 191° South 450 834 11,582  Level Indianapolis Center
Mon 17:04:22 37.7642 -81.0525 191° South 446 826 11,582  Level Indianapolis Center
Mon 17:05:24 37.6453 -81.0819 191° South 445 824 11,582  Level Indianapolis Center
Mon 17:06:26 37.5031 -81.1175 191° South 447 827 11,582  Level Indianapolis Center
Mon 17:07:28 37.3847 -81.1483 192° South 447 827 11,582  Level Indianapolis Center
Mon 17:08:30 37.2506 -81.1817 191° South 447 827 11,582  Level Indianapolis Center
Mon 17:09:32 37.1261 -81.2131 191° South 448 830 11,582  Level Indianapolis Center
Mon 17:10:22 37.0169 -81.2417 192° South 459 850 11,582  Level Atlanta Center
Mon 17:11:22 36.8906 -81.2722 191° South 469 869 11,582  Level Atlanta Center
Mon 17:12:22 36.7700 -81.2997 190° South 456 845 11,582  Level Atlanta Center
Mon 17:13:22 36.6478 -81.3322 192° South 451 835 11,582  Level Atlanta Center
Mon 17:14:22 36.5233 -81.3597 190° South 451 835 11,582  Level Atlanta Center
Mon 17:15:22 36.4011 -81.3922 192° South 451 835 11,582  Level Atlanta Center
Mon 17:16:22 36.2767 -81.4247 192° South 451 835 11,582  Level Atlanta Center
Mon 17:17:22 36.1542 -81.4544 191° South 451 835 11,582  Level Atlanta Center
Mon 17:18:22 36.0275 -81.4814 190° South 451 835 11,582  Level Atlanta Center
Mon 17:19:22 35.9031 -81.5161 193° South 456 845 11,582  Level Atlanta Center
Mon 17:20:22 35.7783 -81.5456 191° South 456 845 11,582  Level Atlanta Center
Mon 17:21:22 35.6561 -81.5775 192° South 456 845 11,582  Level Atlanta Center
Mon 17:22:22 35.5314 -81.6067 191° South 461 855 11,582  Level Atlanta Center
Mon 17:23:22 35.4067 -81.6333 190° South 461 855 11,582  Level Atlanta Center
Mon 17:24:22 35.2800 -81.6650 192° South 466 863 11,582  Level Atlanta Center
Mon 17:25:22 35.1575 -81.6914 190° South 466 863 11,582  Level Atlanta Center
Mon 17:26:22 35.0331 -81.7253 193° South 466 863 11,582  Level Atlanta Center
Mon 17:27:22 34.9103 -81.7517 190° South 466 863 11,582  Level Atlanta Center
Mon 17:28:22 34.7836 -81.7803 191° South 466 863 11,582  Level Atlanta Center
Mon 17:29:22 34.6611 -81.8114 192° South 466 863 11,582  Level Atlanta Center
Mon 17:30:22 34.5508 -81.8319 189° South 461 855 11,582  Level Atlanta Center
Mon 17:31:22 34.4281 -81.8606 191° South 461 855 11,582  Level Atlanta Center
Mon 17:32:22 34.3033 -81.8889 191° South 461 855 11,582  Level Atlanta Center
Mon 17:33:22 34.1828 -81.9144 190° South 451 835 11,582  Level Atlanta Center
Mon 17:34:22 34.0622 -81.9425 191° South 446 826 11,582  Level Atlanta Center
Mon 17:35:22 33.9417 -81.9706 191° South 446 826 11,582  Level Atlanta Center
Mon 17:36:22 33.8192 -81.9986 191° South 446 826 11,582  Level Atlanta Center
Mon 17:37:22 33.6983 -82.0239 190° South 446 826 11,582  Level Atlanta Center
Mon 17:38:22 33.5736 -82.0542 191° South 451 835 11,582  Level Atlanta Center
Mon 17:39:22 33.4508 -82.0819 191° South 451 835 11,582  Level Atlanta Center
Mon 17:40:22 33.3303 -82.1119 192° South 451 835 11,582 -30 Level Atlanta Center
Mon 17:41:22 33.2097 -82.1369 190° South 451 835 11,521 -168 Descending Atlanta Center
Mon 17:42:22 33.0933 -82.1644 191° South 441 816 11,247 -274 Descending Atlanta Center
Mon 17:43:22 32.9767 -82.1892 190° South 436 808 10,973 -137 Descending Atlanta Center
Mon 17:44:22 32.8539 -82.2189 191° South 436 808 10,973 -11 Level Atlanta Center
Mon 17:46:07 32.6264 -82.2686 190° South 470 871 10,942 -78 Descending Jacksonville Center
Mon 17:47:07 32.5011 -82.2939 190° South 465 861 10,759 -229 Descending Jacksonville Center
Mon 17:48:07 32.3950 -82.3217 192° South 459 850 10,485 -198 Descending Jacksonville Center
Mon 17:49:07 32.2614 -82.3275 182° South 454 840 10,363 -61 Descending Jacksonville Center
Mon 17:50:07 32.1172 -82.3136 175° South 475 880 10,363  Level Jacksonville Center
Mon 17:51:07 31.9836 -82.3022 176° South 481 892 10,363  Level Jacksonville Center
Mon 17:52:07 31.8667 -82.2883 174° South 481 892 10,363 -46 Level Jacksonville Center
Mon 17:53:07 31.7225 -82.2769 176° South 481 892 10,272 -183 Descending Jacksonville Center
Mon 17:54:07 31.6117 -82.2681 176° South 465 861 9,997 -290 Descending Jacksonville Center
Mon 17:55:07 31.4842 -82.2567 176° South 460 851 9,693 -290 Descending Jacksonville Center
Mon 17:56:07 31.3486 -82.2456 176° South 467 864 9,418 -290 Descending Jacksonville Center
Mon 17:57:07 31.2128 -82.2294 174° South 490 908 9,114 -305 Descending Jacksonville Center
Mon 17:58:07 31.0706 -82.2183 176° South 503 932 8,809 -290 Descending Jacksonville Center
Mon 17:59:07 30.9286 -82.2025 175° South 508 941 8,534 -137 Descending Jacksonville Center
Mon 18:00:07 30.7844 -82.1889 175° South 514 953 8,534  Level Jacksonville Center
Mon 18:01:07 30.6425 -82.1756 175° South 520 962 8,534  Level Jacksonville Center
Mon 18:02:07 30.5025 -82.1597 174° South 520 962 8,534 -15 Level Jacksonville Center
Mon 18:03:07 30.3583 -82.1464 175° South 515 954 8,504  Descending Jacksonville Center
Mon 18:04:07 30.2161 -82.1331 175° South 520 962 8,534 15 Climbing Jacksonville Center
Mon 18:05:07 30.0761 -82.1078 171° South 515 954 8,534  Level Jacksonville Center
Mon 18:06:07 29.9194 -82.0803 171° South 515 954 8,534 -107 Level Jacksonville Center
Mon 18:07:07 29.7794 -82.0528 170° South 520 962 8,321 -152 Descending Jacksonville Center
Mon 18:08:07 29.6394 -82.0275 171° South 520 962 8,230 -46 Descending Jacksonville Center
Mon 18:09:07 29.4972 -82.0003 171° South 520 962 8,230  Level Jacksonville Center
Mon 18:10:07 29.3592 -81.9706 169° South 520 962 8,230  Level Jacksonville Center
Mon 18:11:07 29.2169 -81.9408 170° South 520 962 8,230  Level Jacksonville Center
Mon 18:13:40 28.8639 -81.8733 170° South 503 932 8,230  Level Miami Center
Mon 18:14:40 28.7231 -81.8456 170° South 515 954 8,230  Level Miami Center
Mon 18:15:40 28.5842 -81.8158 169° South 520 962 8,230  Level Miami Center
Mon 18:16:40 28.4478 -81.7789 167° South 513 950 8,230 -122 Level Miami Center
Mon 18:17:40 28.3053 -81.7397 166° South 508 941 7,986 -351 Descending Miami Center
Mon 18:18:40 28.1731 -81.7011 166° South 509 943 7,529 -549 Descending Miami Center
Mon 18:19:40 28.0406 -81.6694 168° South 503 932 6,888 -625 Descending Miami Center
Mon 18:20:40 27.9100 -81.6453 171° South 490 908 6,279 -625 Descending Miami Center
Mon 18:21:40 27.7856 -81.6211 170° South 471 872 5,639 -610 Descending Miami Center
Mon 18:22:40 27.6653 -81.5997 171° South 457 847 5,060 -610 Descending Miami Center
Mon 18:23:40 27.5492 -81.5786 171° South 439 813 4,420 -549 Descending Miami Center
Mon 18:24:40 27.4369 -81.5622 173° South 424 785 3,962 -351 Descending Miami Center
Mon 18:25:40 27.3394 -81.5419 170° South 418 774 3,719 -274 Descending Miami Center
Mon 18:26:40 27.2275 -81.5211 171° South 408 756 3,414 -335 Descending Miami Center
Mon 18:27:40 27.1175 -81.5025 171° South 408 756 3,048 -183 Descending Miami Center
Mon 18:28:40 27.0014 -81.4769 169° South 403 747 3,048  Level Miami Center
Mon 18:29:40 26.9006 -81.4289 157° South 397 735 3,048  Level Miami Center
Mon 18:30:40 26.8039 -81.3831 157° South 390 723 3,048 -198 Level Miami Center
Mon 18:31:40 26.7200 -81.3939 187° South 311 576 2,652 -320 Descending Miami Center
Mon 18:32:40 26.6425 -81.4003 184° South 290 538 2,408 -396 Descending Miami Center
Mon 18:33:40 26.5764 -81.4486 213° Southwest 280 518 1,859 -579 Descending Miami Center
Mon 18:34:40 26.5142 -81.4972 215° Southwest 280 518 1,250 -472 Descending Miami Center
Mon 18:35:40 26.4542 -81.5436 215° Southwest 275 509 914 -335 Descending Miami Center
Mon 18:37:00 26.3212 -81.6460 233° Southwest  Level Estimated
Mon 18:44:00 26.1500 -81.7667 246° West  Level FlightAware Approximate
Mon 18:45:00 26.1524 -81.7756 246° West  Level Estimated
Mon 18:46:00 26.1524 -81.7756 246° West  Level Estimated
Mon 18:47:00 26.1524 -81.7756 246° West  Level Estimated
Mon 18:48:00 26.1524 -81.7756 246° West  Level Estimated
Mon 18:49:00 26.1524 -81.7756 246° West  Level Estimated
Mon 18:50:00 26.1524 -81.7756 246° West  Level Estimated
Mon 18:51:00 26.1524 -81.7756 246° West  Level Estimated

Login

Don't have an account? Register now (free) for customized features, flight alerts, and more!